Time;durP1;ratioP1;P1;durP2;ratioP2;P2;SDS_P1;SDS_P2;PMS_P1;PMS_P2;Temp;Humidity;BMP_temperature;BMP_pressure;BME280_temperature;BME280_humidity;BME280_pressure;Samples;Min_cycle;Max_cycle;Signal;HPM_P1;HPM_P2
2022/03/01 00:02:13;;;;;;;15.07;5.80;;;;;;;;;;4946982;29;20094;-66
2022/03/01 00:04:54;;;;;;;13.82;5.47;;;;;;;;;;2723117;28;10002387;-66
2022/03/01 00:07:22;;;;;;;11.40;4.68;;;;;;;;;;3230852;29;10001211;-66
2022/03/01 00:09:50;;;;;;;17.38;6.30;;;;;;;;;;4954356;28;20133;-66
2022/03/01 00:12:20;;;;;;;17.95;5.45;;;;;;;;;;4965949;28;20088;-66
2022/03/01 00:14:48;;;;;;;11.48;5.32;;;;;;;;;;4978053;28;20090;-66
2022/03/01 00:17:16;;;;;;;11.30;5.65;;;;;;;;;;4973297;28;20138;-66
2022/03/01 00:19:45;;;;;;;13.73;5.82;;;;;;;;;;4971351;28;20122;-66
2022/03/01 00:22:13;;;;;;;18.83;6.00;;;;;;;;;;4970538;28;20142;-66
2022/03/01 00:24:41;;;;;;;15.65;5.70;;;;;;;;;;4974328;28;20134;-66
2022/03/01 00:27:10;;;;;;;11.77;5.38;;;;;;;;;;4974051;28;20494;-66
2022/03/01 00:29:39;;;;;;;15.88;5.15;;;;;;;;;;4973316;28;20084;-66
2022/03/01 00:32:08;;;;;;;10.80;4.72;;;;;;;;;;4970460;28;20069;-66
2022/03/01 00:34:37;;;;;;;16.33;5.20;;;;;;;;;;4969207;28;20442;-66
2022/03/01 00:37:06;;;;;;;14.25;5.93;;;;;;;;;;4973861;28;20043;-66
2022/03/01 00:39:34;;;;;;;12.90;4.80;;;;;;;;;;4973836;28;20051;-66
2022/03/01 00:42:03;;;;;;;10.02;4.32;;;;;;;;;;4974626;28;21414;-66
2022/03/01 00:44:31;;;;;;;14.02;5.53;;;;;;;;;;4973076;28;20061;-66
2022/03/01 00:47:01;;;;;;;16.15;5.40;;;;;;;;;;4973460;28;20061;-66
2022/03/01 00:49:29;;;;;;;14.82;5.07;;;;;;;;;;4972793;28;20133;-66
2022/03/01 00:51:57;;;;;;;9.85;3.70;;;;;;;;;;4963425;28;20131;-66
2022/03/01 00:54:25;;;;;;;13.80;5.47;;;;;;;;;;4968692;28;20069;-66
2022/03/01 00:56:54;;;;;;;13.15;5.15;;;;;;;;;;4976377;28;20046;-66
2022/03/01 00:59:22;;;;;;;14.73;5.10;;;;;;;;;;4969236;28;20320;-66
2022/03/01 01:01:50;;;;;;;12.65;4.88;;;;;;;;;;4953259;29;20483;-66
2022/03/01 01:04:20;;;;;;;16.52;5.00;;;;;;;;;;4951317;29;20491;-66
2022/03/01 01:06:48;;;;;;;15.07;5.30;;;;;;;;;;4953837;29;20134;-66
2022/03/01 01:09:16;;;;;;;16.73;5.60;;;;;;;;;;4953104;28;20122;-66
2022/03/01 01:11:45;;;;;;;10.57;4.18;;;;;;;;;;4953576;28;20126;-66
2022/03/01 01:14:13;;;;;;;13.65;5.72;;;;;;;;;;4953859;28;20141;-66
2022/03/01 01:16:42;;;;;;;11.57;5.03;;;;;;;;;;4950749;28;20588;-66
2022/03/01 01:19:13;;;;;;;15.38;5.43;;;;;;;;;;4952621;28;20043;-66
2022/03/01 01:24:28;;;;;;;13.20;5.30;;;;;;;;;;4953526;28;20162;-66
2022/03/01 01:26:57;;;;;;;11.35;4.57;;;;;;;;;;4941693;28;20491;-66
2022/03/01 01:29:25;;;;;;;15.20;5.85;;;;;;;;;;4949199;28;20590;-66
2022/03/01 01:31:53;;;;;;;13.38;4.95;;;;;;;;;;4952003;29;20130;-66
2022/03/01 01:34:22;;;;;;;16.23;5.22;;;;;;;;;;4953389;29;20091;-66
2022/03/01 01:36:51;;;;;;;15.68;5.40;;;;;;;;;;4953453;29;20054;-66
2022/03/01 01:39:20;;;;;;;14.13;5.47;;;;;;;;;;4952611;28;20077;-66
2022/03/01 01:41:48;;;;;;;14.52;5.97;;;;;;;;;;4952431;29;20500;-66
2022/03/01 01:44:19;;;;;;;13.88;4.93;;;;;;;;;;4947474;28;20455;-66
2022/03/01 01:46:48;;;;;;;13.85;5.10;;;;;;;;;;4953834;29;20043;-66
2022/03/01 01:49:16;;;;;;;9.55;4.63;;;;;;;;;;4952191;28;20134;-66
2022/03/01 01:51:45;;;;;;;9.57;4.47;;;;;;;;;;4953219;29;20519;-66
2022/03/01 01:54:15;;;;;;;14.30;5.20;;;;;;;;;;4951437;29;20047;-66
2022/03/01 01:56:44;;;;;;;16.58;5.28;;;;;;;;;;4951185;28;20050;-66
2022/03/01 01:59:13;;;;;;;14.98;5.40;;;;;;;;;;4941000;28;20138;-66
2022/03/01 02:01:41;;;;;;;18.83;6.07;;;;;;;;;;4936021;29;20496;-66
2022/03/01 02:04:18;;;;;;;8.85;3.68;;;;;;;;;;3816368;28;10025300;-67
2022/03/01 02:06:53;;;;;;;16.02;4.90;;;;;;;;;;1706607;29;10002023;-66
2022/03/01 02:09:23;;;;;;;16.77;5.68;;;;;;;;;;4951669;28;20075;-66
2022/03/01 02:11:51;;;;;;;14.23;5.38;;;;;;;;;;4937584;28;20055;-66
2022/03/01 02:14:19;;;;;;;13.13;5.30;;;;;;;;;;4952761;29;20579;-66
2022/03/01 02:16:48;;;;;;;12.20;5.55;;;;;;;;;;4955104;28;20522;-66
2022/03/01 02:21:58;;;;;;;14.40;5.47;;;;;;;;;;4950814;28;20047;-83
2022/03/01 02:24:27;;;;;;;15.23;6.20;;;;;;;;;;4960366;28;20556;-83
2022/03/01 02:26:56;;;;;;;13.20;5.97;;;;;;;;;;4975578;28;20110;-82
2022/03/01 02:29:26;;;;;;;11.77;5.50;;;;;;;;;;4970464;28;20459;-83
2022/03/01 02:31:56;;;;;;;15.50;5.10;;;;;;;;;;4962170;28;20411;-84
2022/03/01 02:34:25;;;;;;;13.85;6.05;;;;;;;;;;4947649;29;20091;-83
2022/03/01 02:36:55;;;;;;;13.43;5.93;;;;;;;;;;4962536;28;20546;-83
2022/03/01 02:39:26;;;;;;;15.27;5.85;;;;;;;;;;4962635;29;20047;-84
2022/03/01 02:41:55;;;;;;;16.13;5.82;;;;;;;;;;4970223;28;20043;-83
2022/03/01 02:44:23;;;;;;;12.48;5.18;;;;;;;;;;4964685;28;20106;-83
2022/03/01 02:46:52;;;;;;;16.70;5.40;;;;;;;;;;4963141;28;20059;-83
2022/03/01 02:49:21;;;;;;;13.73;6.25;;;;;;;;;;4959975;29;20059;-84
2022/03/01 02:51:49;;;;;;;14.38;5.80;;;;;;;;;;4941878;29;20089;-84
2022/03/01 02:54:17;;;;;;;8.95;5.18;;;;;;;;;;4944149;28;20082;-84
2022/03/01 02:56:48;;;;;;;14.55;5.85;;;;;;;;;;4967721;28;20071;-84
2022/03/01 02:59:16;;;;;;;13.68;5.78;;;;;;;;;;4962623;28;20051;-84
2022/03/01 03:01:44;;;;;;;14.43;5.65;;;;;;;;;;4961705;29;20046;-84
2022/03/01 03:04:13;;;;;;;12.75;5.22;;;;;;;;;;4960574;29;20543;-84
2022/03/01 03:06:46;;;;;;;13.63;5.90;;;;;;;;;;4960476;29;20078;-84
2022/03/01 03:09:15;;;;;;;11.52;5.97;;;;;;;;;;4942688;29;20080;-84
2022/03/01 03:11:45;;;;;;;13.82;5.18;;;;;;;;;;4965464;28;20074;-84
2022/03/01 03:14:15;;;;;;;13.32;4.88;;;;;;;;;;4965561;28;20083;-83
2022/03/01 03:16:46;;;;;;;13.52;5.30;;;;;;;;;;4961377;29;20039;-86
2022/03/01 03:19:16;;;;;;;11.35;4.78;;;;;;;;;;4959470;29;20094;-84
2022/03/01 03:21:47;;;;;;;12.70;5.47;;;;;;;;;;4960504;29;20471;-84
2022/03/01 03:24:16;;;;;;;12.25;4.55;;;;;;;;;;4959223;29;20075;-84
2022/03/01 03:26:45;;;;;;;12.80;5.57;;;;;;;;;;4963598;28;20043;-84
2022/03/01 03:29:14;;;;;;;12.35;5.90;;;;;;;;;;4962720;28;20066;-84
2022/03/01 03:31:44;;;;;;;8.93;4.25;;;;;;;;;;4961956;29;20078;-82
2022/03/01 03:34:13;;;;;;;12.63;5.35;;;;;;;;;;4959916;28;20051;-83
2022/03/01 03:36:44;;;;;;;15.77;5.75;;;;;;;;;;4944883;28;20044;-83
2022/03/01 03:39:13;;;;;;;13.30;4.40;;;;;;;;;;4944316;29;20124;-83
2022/03/01 03:41:42;;;;;;;14.38;5.18;;;;;;;;;;4955865;28;20056;-83
2022/03/01 03:44:10;;;;;;;11.73;4.97;;;;;;;;;;4968273;28;20055;-83
2022/03/01 03:46:39;;;;;;;10.90;5.47;;;;;;;;;;4962779;28;20057;-83
2022/03/01 03:49:09;;;;;;;9.73;4.95;;;;;;;;;;4962503;28;20054;-83
2022/03/01 03:51:37;;;;;;;14.00;5.22;;;;;;;;;;4965117;29;20051;-84
2022/03/01 03:54:06;;;;;;;12.55;5.32;;;;;;;;;;4962455;29;20530;-84
2022/03/01 03:56:34;;;;;;;19.10;5.60;;;;;;;;;;4965772;28;20494;-84
2022/03/01 03:59:02;;;;;;;9.85;4.55;;;;;;;;;;4955334;28;20082;-84
2022/03/01 04:01:31;;;;;;;10.95;4.32;;;;;;;;;;4963116;29;20496;-84
2022/03/01 04:04:00;;;;;;;10.55;4.20;;;;;;;;;;4964503;29;20304;-83
2022/03/01 04:06:30;;;;;;;10.15;5.15;;;;;;;;;;4964510;29;20078;-84
2022/03/01 04:09:00;;;;;;;11.35;5.22;;;;;;;;;;4964071;28;20415;-83
2022/03/01 04:11:28;;;;;;;11.70;4.22;;;;;;;;;;4956955;29;20047;-83
2022/03/01 04:14:06;;;;;;;14.10;5.10;;;;;;;;;;4964453;29;20138;-83
2022/03/01 04:16:34;;;;;;;12.48;4.45;;;;;;;;;;4962957;29;20126;-84
2022/03/01 04:19:03;;;;;;;11.18;4.72;;;;;;;;;;4962315;29;20059;-84
2022/03/01 04:21:33;;;;;;;14.02;4.55;;;;;;;;;;4946931;28;20056;-84
2022/03/01 04:24:03;;;;;;;13.80;4.63;;;;;;;;;;4944980;29;20051;-84
2022/03/01 04:26:32;;;;;;;12.00;5.18;;;;;;;;;;4944581;29;20492;-82
2022/03/01 04:29:00;;;;;;;14.77;4.63;;;;;;;;;;4942346;29;20079;-84
2022/03/01 04:31:29;;;;;;;13.25;5.68;;;;;;;;;;4941812;29;20094;-83
2022/03/01 04:33:58;;;;;;;9.98;4.90;;;;;;;;;;4928972;29;20047;-83
2022/03/01 04:36:26;;;;;;;15.45;4.55;;;;;;;;;;4944191;29;20107;-83
2022/03/01 04:38:55;;;;;;;12.18;4.93;;;;;;;;;;4928279;29;20071;-83
2022/03/01 04:41:24;;;;;;;13.20;5.13;;;;;;;;;;4944798;29;20048;-83
2022/03/01 04:43:52;;;;;;;15.18;5.28;;;;;;;;;;4945462;29;20075;-83
2022/03/01 04:46:21;;;;;;;11.57;4.30;;;;;;;;;;4941776;29;20055;-83
2022/03/01 04:48:49;;;;;;;10.27;4.30;;;;;;;;;;4936058;29;20142;-84
2022/03/01 04:51:21;;;;;;;10.75;5.30;;;;;;;;;;4936941;29;20552;-84
2022/03/01 04:53:50;;;;;;;11.57;4.45;;;;;;;;;;4920134;29;20056;-84
2022/03/01 04:56:20;;;;;;;11.07;4.88;;;;;;;;;;4920894;29;20086;-83
2022/03/01 04:58:49;;;;;;;13.50;4.43;;;;;;;;;;4935156;29;20573;-83
2022/03/01 05:01:18;;;;;;;7.32;4.45;;;;;;;;;;4937841;29;20130;-83
2022/03/01 05:03:47;;;;;;;9.20;4.55;;;;;;;;;;4936807;29;20515;-83
2022/03/01 05:06:15;;;;;;;12.80;5.25;;;;;;;;;;4931791;29;20146;-83
2022/03/01 05:08:43;;;;;;;7.78;4.07;;;;;;;;;;4920629;29;20167;-84
2022/03/01 05:11:15;;;;;;;7.40;3.95;;;;;;;;;;4900422;29;20117;-82
2022/03/01 05:13:45;;;;;;;8.85;3.90;;;;;;;;;;4915950;29;20052;-83
2022/03/01 05:16:15;;;;;;;12.73;4.57;;;;;;;;;;4918108;29;20044;-84
2022/03/01 05:18:43;;;;;;;14.80;5.60;;;;;;;;;;4918157;29;20408;-84
2022/03/01 05:21:12;;;;;;;8.93;3.80;;;;;;;;;;4921465;29;20407;-83
2022/03/01 05:23:41;;;;;;;10.43;4.35;;;;;;;;;;4934736;29;20075;-83
2022/03/01 05:26:12;;;;;;;10.23;4.70;;;;;;;;;;4936010;29;20420;-83
2022/03/01 05:28:41;;;;;;;7.60;4.30;;;;;;;;;;4937740;29;20674;-83
2022/03/01 05:31:11;;;;;;;12.10;4.20;;;;;;;;;;4947141;29;20043;-82
2022/03/01 05:33:39;;;;;;;8.23;4.10;;;;;;;;;;4938737;29;20047;-82
2022/03/01 05:36:08;;;;;;;10.75;4.88;;;;;;;;;;4945364;29;20052;-82
2022/03/01 05:38:36;;;;;;;12.40;4.57;;;;;;;;;;4933076;29;20427;-82
2022/03/01 05:41:08;;;;;;;7.68;3.63;;;;;;;;;;4919498;29;20511;-82
2022/03/01 05:43:36;;;;;;;12.25;4.72;;;;;;;;;;4923410;29;20086;-82
2022/03/01 05:46:07;;;;;;;8.38;3.88;;;;;;;;;;4953074;29;20059;-82
2022/03/01 05:48:37;;;;;;;7.93;4.00;;;;;;;;;;4953738;29;20062;-82
2022/03/01 05:51:06;;;;;;;8.35;4.43;;;;;;;;;;4936063;29;20484;-82
2022/03/01 05:53:37;;;;;;;10.75;4.15;;;;;;;;;;4935087;29;20511;-82
2022/03/01 05:56:06;;;;;;;13.10;4.03;;;;;;;;;;4945479;29;20066;-84
2022/03/01 05:58:34;;;;;;;11.32;3.95;;;;;;;;;;4934786;29;20052;-82
2022/03/01 06:01:06;;;;;;;9.35;3.78;;;;;;;;;;4951881;28;20073;-82
2022/03/01 06:03:34;;;;;;;9.27;4.53;;;;;;;;;;4952164;29;20130;-82
2022/03/01 06:06:10;;;;;;;5.95;3.42;;;;;;;;;;4935023;29;20081;-83
2022/03/01 06:08:38;;;;;;;10.48;4.40;;;;;;;;;;4950339;28;20078;-82
2022/03/01 06:11:06;;;;;;;9.82;4.07;;;;;;;;;;4939759;29;20495;-81
2022/03/01 06:13:37;;;;;;;10.98;5.05;;;;;;;;;;4962686;28;20093;-82
2022/03/01 06:16:07;;;;;;;8.43;4.40;;;;;;;;;;4951304;29;20083;-83
2022/03/01 06:18:36;;;;;;;10.57;4.13;;;;;;;;;;4951459;29;20065;-82
2022/03/01 06:21:10;;;;;;;9.30;3.50;;;;;;;;;;4950624;28;20083;-82
2022/03/01 06:23:38;;;;;;;10.95;3.92;;;;;;;;;;4950995;29;20094;-82
2022/03/01 06:26:10;;;;;;;17.38;5.10;;;;;;;;;;4950123;28;20431;-82
2022/03/01 06:28:38;;;;;;;6.35;3.53;;;;;;;;;;4950671;29;20491;-82
2022/03/01 06:31:07;;;;;;;12.57;4.70;;;;;;;;;;4949659;28;20051;-83
2022/03/01 06:33:35;;;;;;;12.95;4.20;;;;;;;;;;4934963;29;20094;-82
2022/03/01 06:36:08;;;;;;;7.40;3.55;;;;;;;;;;4935462;29;20103;-83
2022/03/01 06:38:36;;;;;;;6.60;2.60;;;;;;;;;;4932413;29;20090;-83
2022/03/01 06:41:05;;;;;;;8.82;3.38;;;;;;;;;;4937140;29;20058;-83
2022/03/01 06:43:34;;;;;;;11.60;3.90;;;;;;;;;;4953838;29;20082;-83
2022/03/01 06:46:05;;;;;;;14.48;3.78;;;;;;;;;;4953652;29;20086;-82
2022/03/01 06:48:34;;;;;;;7.18;3.45;;;;;;;;;;4955120;29;20087;-83
2022/03/01 06:51:07;;;;;;;13.35;3.95;;;;;;;;;;4953101;29;20077;-83
2022/03/01 06:53:39;;;;;;;16.83;5.03;;;;;;;;;;4954706;28;20058;-83
2022/03/01 06:56:08;;;;;;;21.90;4.75;;;;;;;;;;4953475;28;20078;-82
2022/03/01 06:58:36;;;;;;;19.50;4.85;;;;;;;;;;4953123;29;20098;-82
2022/03/01 07:01:05;;;;;;;8.95;3.53;;;;;;;;;;4951791;28;20098;-82
2022/03/01 07:03:34;;;;;;;12.70;4.68;;;;;;;;;;4952481;28;20106;-83
2022/03/01 07:06:05;;;;;;;15.85;4.72;;;;;;;;;;4952104;28;20059;-83
2022/03/01 07:08:34;;;;;;;13.18;3.55;;;;;;;;;;4953365;29;20097;-81
2022/03/01 07:11:06;;;;;;;7.80;3.38;;;;;;;;;;4954133;28;20530;-83
2022/03/01 07:13:34;;;;;;;11.77;4.85;;;;;;;;;;4952671;28;20117;-81
2022/03/01 07:16:05;;;;;;;11.35;3.83;;;;;;;;;;4954856;28;20086;-82
2022/03/01 07:18:37;;;;;;;12.48;4.57;;;;;;;;;;4957572;28;20074;-83
2022/03/01 07:21:05;;;;;;;11.70;3.88;;;;;;;;;;4962643;28;20073;-83
2022/03/01 07:23:35;;;;;;;9.45;3.80;;;;;;;;;;4941867;29;20519;-83
2022/03/01 07:26:09;;;;;;;8.20;3.55;;;;;;;;;;4944425;29;20125;-83
2022/03/01 07:28:40;;;;;;;7.22;3.72;;;;;;;;;;4940978;28;20055;-83
2022/03/01 07:31:08;;;;;;;8.20;3.72;;;;;;;;;;4958655;28;20122;-84
2022/03/01 07:33:41;;;;;;;10.75;3.70;;;;;;;;;;4956931;28;20043;-82
2022/03/01 07:36:09;;;;;;;8.90;3.35;;;;;;;;;;4956262;29;20547;-83
2022/03/01 07:38:38;;;;;;;10.85;4.35;;;;;;;;;;4957761;28;20074;-83
2022/03/01 07:41:09;;;;;;;11.25;3.70;;;;;;;;;;4957580;28;20095;-82
2022/03/01 07:43:39;;;;;;;12.98;4.05;;;;;;;;;;4957849;29;20051;-82
2022/03/01 07:46:11;;;;;;;12.43;3.60;;;;;;;;;;4953573;28;20086;-83
2022/03/01 07:48:40;;;;;;;9.30;4.30;;;;;;;;;;4958640;29;20158;-84
2022/03/01 07:51:08;;;;;;;9.88;3.67;;;;;;;;;;4958120;28;20510;-83
2022/03/01 07:53:37;;;;;;;14.10;4.18;;;;;;;;;;4950853;28;20099;-83
2022/03/01 07:56:06;;;;;;;9.15;4.47;;;;;;;;;;4955886;28;20083;-82
2022/03/01 07:58:36;;;;;;;8.40;3.60;;;;;;;;;;4957418;28;20507;-84
2022/03/01 08:01:05;;;;;;;10.73;4.18;;;;;;;;;;4973378;28;20534;-83
2022/03/01 08:03:37;;;;;;;10.98;4.32;;;;;;;;;;4968480;28;20050;-82
2022/03/01 08:06:05;;;;;;;11.68;4.93;;;;;;;;;;4960360;28;20054;-84
2022/03/01 08:08:34;;;;;;;12.75;4.00;;;;;;;;;;4979297;28;20078;-82
2022/03/01 08:11:05;;;;;;;11.25;4.72;;;;;;;;;;4959212;28;20066;-83
2022/03/01 08:13:44;;;;;;;12.40;4.32;;;;;;;;;;4950961;29;20040;-84
2022/03/01 08:16:14;;;;;;;7.63;3.90;;;;;;;;;;4958238;28;20531;-83
2022/03/01 08:18:43;;;;;;;6.70;3.25;;;;;;;;;;4959675;29;20126;-83
2022/03/01 08:21:11;;;;;;;11.07;4.53;;;;;;;;;;4958903;29;20050;-84
2022/03/01 08:23:42;;;;;;;10.85;4.57;;;;;;;;;;4970476;28;20042;-84
2022/03/01 08:26:11;;;;;;;12.52;3.80;;;;;;;;;;4972433;28;20105;-84
2022/03/01 08:28:40;;;;;;;7.45;3.72;;;;;;;;;;4956887;28;20181;-83
2022/03/01 08:31:10;;;;;;;8.80;3.42;;;;;;;;;;4956110;29;20115;-83
2022/03/01 08:33:39;;;;;;;10.38;3.80;;;;;;;;;;4954080;28;20043;-83
2022/03/01 08:36:09;;;;;;;10.10;4.38;;;;;;;;;;4958281;29;20075;-83
2022/03/01 08:38:38;;;;;;;10.23;4.10;;;;;;;;;;4960610;28;20090;-84
2022/03/01 08:41:11;;;;;;;8.10;3.67;;;;;;;;;;4963931;28;20426;-83
2022/03/01 08:43:40;;;;;;;12.88;4.25;;;;;;;;;;4956920;29;20081;-84
2022/03/01 08:46:12;;;;;;;9.63;3.42;;;;;;;;;;4968031;28;20232;-82
2022/03/01 08:48:44;;;;;;;7.45;4.03;;;;;;;;;;4943113;28;20650;-83
2022/03/01 08:51:15;;;;;;;9.68;3.92;;;;;;;;;;4937100;29;20138;-83
2022/03/01 08:53:43;;;;;;;9.10;3.58;;;;;;;;;;4938910;29;20244;-84
2022/03/01 08:56:14;;;;;;;10.15;3.97;;;;;;;;;;4960186;28;20066;-83
2022/03/01 08:58:42;;;;;;;8.10;3.85;;;;;;;;;;4980648;28;20098;-82
2022/03/01 09:01:13;;;;;;;7.00;2.97;;;;;;;;;;4973344;28;20055;-83
2022/03/01 09:03:42;;;;;;;7.00;3.63;;;;;;;;;;4979465;28;20051;-83
2022/03/01 09:06:14;;;;;;;7.40;3.60;;;;;;;;;;4958319;29;20122;-83
2022/03/01 09:08:43;;;;;;;9.20;3.75;;;;;;;;;;4942833;29;20055;-84
2022/03/01 09:11:13;;;;;;;7.28;3.65;;;;;;;;;;4964675;28;20480;-83
2022/03/01 09:13:42;;;;;;;7.47;3.65;;;;;;;;;;4955068;29;20407;-82
2022/03/01 09:16:10;;;;;;;7.30;3.30;;;;;;;;;;4955340;28;20074;-83
2022/03/01 09:18:40;;;;;;;7.60;3.42;;;;;;;;;;4955789;29;20103;-82
2022/03/01 09:21:10;;;;;;;6.85;3.42;;;;;;;;;;4951593;29;20362;-83
2022/03/01 09:23:41;;;;;;;9.27;3.80;;;;;;;;;;4954420;29;20083;-84
2022/03/01 09:26:10;;;;;;;9.13;3.28;;;;;;;;;;4954147;28;20412;-83
2022/03/01 09:28:41;;;;;;;8.63;3.53;;;;;;;;;;4951299;29;20051;-84
2022/03/01 09:31:11;;;;;;;11.05;4.22;;;;;;;;;;4953720;29;20212;-84
2022/03/01 09:33:44;;;;;;;7.07;3.60;;;;;;;;;;4950393;28;20047;-84
2022/03/01 09:36:13;;;;;;;12.98;4.35;;;;;;;;;;4950370;29;20416;-84
2022/03/01 09:38:42;;;;;;;9.10;4.15;;;;;;;;;;4954738;29;20055;-84
2022/03/01 09:41:12;;;;;;;11.13;4.30;;;;;;;;;;4949878;29;20051;-83
2022/03/01 09:43:42;;;;;;;9.48;3.80;;;;;;;;;;4954806;28;20087;-83
2022/03/01 09:46:15;;;;;;;13.20;4.28;;;;;;;;;;4970549;28;20058;-83
2022/03/01 09:48:46;;;;;;;11.15;3.20;;;;;;;;;;4953733;29;20617;-84
2022/03/01 09:51:15;;;;;;;8.82;3.42;;;;;;;;;;4953349;29;20103;-84
2022/03/01 09:53:46;;;;;;;9.60;3.22;;;;;;;;;;4954558;29;20277;-83
2022/03/01 09:56:18;;;;;;;8.40;3.83;;;;;;;;;;4954327;28;20057;-83
2022/03/01 09:58:47;;;;;;;8.48;3.88;;;;;;;;;;4952473;29;20062;-84
2022/03/01 10:01:16;;;;;;;9.20;3.45;;;;;;;;;;4954728;29;20517;-84
2022/03/01 10:03:51;;;;;;;8.80;4.10;;;;;;;;;;4955968;28;20082;-83
2022/03/01 10:06:23;;;;;;;8.20;4.15;;;;;;;;;;4975006;28;20533;-84
2022/03/01 10:08:54;;;;;;;11.68;4.13;;;;;;;;;;4961784;28;20079;-83
2022/03/01 10:11:23;;;;;;;7.03;3.85;;;;;;;;;;4955220;29;20063;-84
2022/03/01 10:13:58;;;;;;;8.20;3.88;;;;;;;;;;4949513;29;20459;-84
2022/03/01 10:16:27;;;;;;;;;;;;;;;;;;4954604;29;20051;-84
2022/03/01 10:18:59;;;;;;;12.27;3.72;;;;;;;;;;4950426;29;19937;-83
2022/03/01 10:21:29;;;;;;;11.80;3.83;;;;;;;;;;4942202;28;20079;-84
2022/03/01 10:23:59;;;;;;;10.30;3.75;;;;;;;;;;4953454;28;20043;-84
2022/03/01 10:26:29;;;;;;;9.38;3.83;;;;;;;;;;4957394;28;20090;-84
2022/03/01 10:29:00;;;;;;;10.13;4.22;;;;;;;;;;4957791;29;20058;-84
2022/03/01 10:31:30;;;;;;;8.38;3.53;;;;;;;;;;4952961;29;20050;-84
2022/03/01 10:34:02;;;;;;;9.45;4.10;;;;;;;;;;4962254;28;20476;-84
2022/03/01 10:36:32;;;;;;;6.40;3.25;;;;;;;;;;4961528;29;20047;-83
2022/03/01 10:39:02;;;;;;;8.73;3.67;;;;;;;;;;4960209;29;20121;-83
2022/03/01 10:41:32;;;;;;;8.50;4.35;;;;;;;;;;4960365;29;20473;-83
2022/03/01 10:44:03;;;;;;;5.85;2.95;;;;;;;;;;4965764;28;20134;-84
2022/03/01 10:46:39;;;;;;;8.00;3.88;;;;;;;;;;4950295;29;20074;-84
2022/03/01 10:49:10;;;;;;;7.45;3.83;;;;;;;;;;4918777;29;20060;-85
2022/03/01 10:51:48;;;;;;;10.10;4.03;;;;;;;;;;4940136;29;20446;-84
2022/03/01 10:54:31;;;;;;;8.20;3.40;;;;;;;;;;4955546;29;20082;-84
2022/03/01 10:57:01;;;;;;;6.68;3.40;;;;;;;;;;4953643;28;20039;-84
2022/03/01 10:59:31;;;;;;;9.70;3.58;;;;;;;;;;4950564;28;20050;-84
2022/03/01 11:01:59;;;;;;;6.20;3.05;;;;;;;;;;4954880;29;20134;-85
2022/03/01 11:04:30;;;;;;;8.93;3.85;;;;;;;;;;4954500;29;20054;-85
2022/03/01 11:07:01;;;;;;;7.55;3.75;;;;;;;;;;4954551;29;20134;-82
2022/03/01 11:09:31;;;;;;;10.43;4.20;;;;;;;;;;4961721;28;20053;-84
2022/03/01 11:12:00;;;;;;;12.30;3.83;;;;;;;;;;4974478;28;20053;-85
2022/03/01 11:14:31;;;;;;;8.98;3.58;;;;;;;;;;4955366;29;20051;-84
2022/03/01 11:17:03;;;;;;;6.78;3.40;;;;;;;;;;4955410;29;20161;-84
2022/03/01 11:19:50;;;;;;;7.68;3.95;;;;;;;;;;4955208;28;20479;-84
2022/03/01 11:22:21;;;;;;;6.35;2.92;;;;;;;;;;4943356;29;20039;-85
2022/03/01 11:24:51;;;;;;;5.80;3.42;;;;;;;;;;4954128;29;20047;-84
2022/03/01 11:27:21;;;;;;;6.55;3.70;;;;;;;;;;4953509;28;20051;-84
2022/03/01 11:29:50;;;;;;;7.53;3.67;;;;;;;;;;4951492;28;20135;-84
2022/03/01 11:32:22;;;;;;;5.80;2.92;;;;;;;;;;4950808;29;20184;-85
2022/03/01 11:35:03;;;;;;;7.47;3.42;;;;;;;;;;4938755;29;20060;-84
2022/03/01 11:37:32;;;;;;;9.60;3.80;;;;;;;;;;4937849;29;20083;-83
2022/03/01 11:40:04;;;;;;;5.55;2.92;;;;;;;;;;4952728;28;20047;-84
2022/03/01 11:42:33;;;;;;;6.43;3.05;;;;;;;;;;4954260;28;20062;-84
2022/03/01 11:45:09;;;;;;;5.70;3.30;;;;;;;;;;4940669;29;20058;-83
2022/03/01 11:47:38;;;;;;;6.00;3.00;;;;;;;;;;4953330;29;20791;-84
2022/03/01 11:50:24;;;;;;;7.90;3.33;;;;;;;;;;4942357;28;20059;-84
2022/03/01 11:52:57;;;;;;;6.40;2.88;;;;;;;;;;4940848;29;20048;-85
2022/03/01 11:55:33;;;;;;;6.88;2.85;;;;;;;;;;4943729;28;20043;-85
2022/03/01 11:58:03;;;;;;;5.43;2.63;;;;;;;;;;4953868;29;20053;-84
2022/03/01 12:00:33;;;;;;;7.68;3.08;;;;;;;;;;4952927;28;20050;-85
2022/03/01 12:03:04;;;;;;;5.30;3.30;;;;;;;;;;4952693;29;20047;-85
2022/03/01 12:05:39;;;;;;;7.43;2.90;;;;;;;;;;4946514;29;20051;-85
2022/03/01 12:08:11;;;;;;;6.55;2.97;;;;;;;;;;4958073;28;20043;-85
2022/03/01 12:10:55;;;;;;;4.47;2.75;;;;;;;;;;4957216;28;20415;-85
2022/03/01 12:13:35;;;;;;;6.78;3.03;;;;;;;;;;4958402;29;20122;-83
2022/03/01 12:16:07;;;;;;;5.30;2.75;;;;;;;;;;4958101;29;20047;-84
2022/03/01 12:18:37;;;;;;;7.72;3.13;;;;;;;;;;4957274;29;20043;-84
2022/03/01 12:21:08;;;;;;;9.38;3.60;;;;;;;;;;4957629;28;20063;-84
2022/03/01 12:23:54;;;;;;;6.90;3.35;;;;;;;;;;4953907;28;20062;-84
2022/03/01 12:26:25;;;;;;;4.95;2.85;;;;;;;;;;4964718;28;20479;-84
2022/03/01 12:28:58;;;;;;;4.80;2.72;;;;;;;;;;4944991;29;20082;-84
2022/03/01 12:31:27;;;;;;;5.68;3.28;;;;;;;;;;4947222;29;20094;-85
2022/03/01 12:34:00;;;;;;;8.98;2.85;;;;;;;;;;4957400;29;20047;-84
2022/03/01 12:36:31;;;;;;;7.28;2.60;;;;;;;;;;4956976;28;20054;-85
2022/03/01 12:39:01;;;;;;;4.22;2.63;;;;;;;;;;4961173;28;20055;-84
2022/03/01 12:41:40;;;;;;;4.35;2.70;;;;;;;;;;4957649;29;20459;-84
2022/03/01 12:44:10;;;;;;;7.75;3.08;;;;;;;;;;4957092;29;20047;-84
2022/03/01 12:46:41;;;;;;;5.32;2.83;;;;;;;;;;4954609;29;20040;-85
2022/03/01 12:49:10;;;;;;;4.13;2.70;;;;;;;;;;4961236;28;20415;-84
2022/03/01 12:51:41;;;;;;;5.75;2.90;;;;;;;;;;4956589;28;20415;-84
2022/03/01 12:54:10;;;;;;;4.60;2.80;;;;;;;;;;4956737;29;20085;-85
2022/03/01 12:56:44;;;;;;;7.10;3.20;;;;;;;;;;4957087;29;20059;-85
2022/03/01 12:59:13;;;;;;;5.90;2.83;;;;;;;;;;4956244;29;20545;-84
2022/03/01 13:01:44;;;;;;;5.65;2.72;;;;;;;;;;4957562;29;20054;-84
2022/03/01 13:04:13;;;;;;;5.47;2.78;;;;;;;;;;4953174;28;20070;-84
2022/03/01 13:06:44;;;;;;;7.18;2.67;;;;;;;;;;4962917;28;20075;-85
2022/03/01 13:09:12;;;;;;;5.38;2.60;;;;;;;;;;4958565;29;20062;-83
2022/03/01 13:11:42;;;;;;;5.78;3.10;;;;;;;;;;4956854;29;20047;-84
2022/03/01 13:14:12;;;;;;;4.43;2.58;;;;;;;;;;4956450;29;20051;-84
2022/03/01 13:16:43;;;;;;;4.47;2.67;;;;;;;;;;4935923;29;20126;-84
2022/03/01 13:19:13;;;;;;;4.65;2.60;;;;;;;;;;4947302;28;20055;-84
2022/03/01 13:21:45;;;;;;;5.15;2.80;;;;;;;;;;4955110;29;20517;-85
2022/03/01 13:24:14;;;;;;;6.07;2.53;;;;;;;;;;4958691;29;20043;-84
2022/03/01 13:26:43;;;;;;;3.90;2.38;;;;;;;;;;4957110;28;20055;-85
2022/03/01 13:29:12;;;;;;;5.03;2.95;;;;;;;;;;4958880;29;20051;-84
2022/03/01 13:31:41;;;;;;;5.93;3.17;;;;;;;;;;4959432;29;20079;-84
2022/03/01 13:34:10;;;;;;;4.30;2.72;;;;;;;;;;4957460;29;20358;-84
2022/03/01 13:36:40;;;;;;;7.82;2.83;;;;;;;;;;4949843;28;20059;-84
2022/03/01 13:39:11;;;;;;;5.63;2.88;;;;;;;;;;4946227;28;20164;-85
2022/03/01 13:41:41;;;;;;;4.85;2.80;;;;;;;;;;4939876;29;20070;-84
2022/03/01 13:44:17;;;;;;;4.28;2.65;;;;;;;;;;4959337;29;20050;-85
2022/03/01 13:46:56;;;;;;;4.28;2.42;;;;;;;;;;4960264;29;20103;-84
2022/03/01 13:49:28;;;;;;;5.07;3.22;;;;;;;;;;4943085;28;20039;-85
2022/03/01 13:52:21;;;;;;;6.10;2.42;;;;;;;;;;4960447;29;20062;-84
2022/03/01 13:54:51;;;;;;;4.15;2.63;;;;;;;;;;4943343;29;20455;-85
2022/03/01 13:57:24;;;;;;;5.78;3.42;;;;;;;;;;4966633;28;20138;-85
2022/03/01 13:59:58;;;;;;;6.00;2.42;;;;;;;;;;4959066;28;20463;-84
2022/03/01 14:02:26;;;;;;;4.13;2.50;;;;;;;;;;4957585;29;20051;-85
2022/03/01 14:04:59;;;;;;;4.63;2.70;;;;;;;;;;4958442;29;20131;-85
2022/03/01 14:07:28;;;;;;;6.22;2.55;;;;;;;;;;4958349;29;20051;-85
2022/03/01 14:09:58;;;;;;;4.32;2.80;;;;;;;;;;4955655;28;20055;-84
2022/03/01 14:12:34;;;;;;;6.00;2.50;;;;;;;;;;4950669;29;20411;-85
2022/03/01 14:15:15;;;;;;;6.28;2.65;;;;;;;;;;4964142;28;20110;-85
2022/03/01 14:17:44;;;;;;;4.90;2.28;;;;;;;;;;4947555;29;20087;-84
2022/03/01 14:20:12;;;;;;;5.88;2.78;;;;;;;;;;4959880;28;20095;-84
2022/03/01 14:22:44;;;;;;;5.05;2.70;;;;;;;;;;4959660;29;20047;-84
2022/03/01 14:25:14;;;;;;;6.57;3.63;;;;;;;;;;4958803;29;20048;-84
2022/03/01 14:27:43;;;;;;;10.02;3.13;;;;;;;;;;4943713;28;20051;-84
2022/03/01 14:30:12;;;;;;;4.68;2.70;;;;;;;;;;4948682;28;20187;-84
2022/03/01 14:32:41;;;;;;;4.90;2.55;;;;;;;;;;4942700;29;20075;-85
2022/03/01 14:35:11;;;;;;;4.65;2.63;;;;;;;;;;4964242;28;20050;-83
2022/03/01 14:37:40;;;;;;;6.40;3.20;;;;;;;;;;4970709;28;20047;-85
2022/03/01 14:40:09;;;;;;;5.15;2.90;;;;;;;;;;4957926;29;20613;-84
2022/03/01 14:42:43;;;;;;;5.20;3.10;;;;;;;;;;4958571;29;20106;-84
2022/03/01 14:45:12;;;;;;;8.73;3.25;;;;;;;;;;4951667;29;20083;-86
2022/03/01 14:47:41;;;;;;;6.45;2.65;;;;;;;;;;4958963;29;20079;-85
2022/03/01 14:50:12;;;;;;;8.00;3.28;;;;;;;;;;4949299;28;20053;-85
2022/03/01 14:52:40;;;;;;;12.10;4.10;;;;;;;;;;4957163;29;20139;-85
2022/03/01 14:55:09;;;;;;;6.38;3.33;;;;;;;;;;4960008;28;20055;-84
2022/03/01 14:57:37;;;;;;;5.32;3.38;;;;;;;;;;4958646;29;20055;-85
2022/03/01 15:00:13;;;;;;;5.93;3.10;;;;;;;;;;4944364;29;20059;-84